sensor_id;sensor_type;location;lat;lon;timestamp;temperature;humidity
4960;DHT22;2495;48.200;11.532;2022-08-19T00:03:22;21.50;81.90
4960;DHT22;2495;48.200;11.532;2022-08-19T00:08:55;21.40;82.00
4960;DHT22;2495;48.200;11.532;2022-08-19T00:13:56;21.50;83.30
4960;DHT22;2495;48.200;11.532;2022-08-19T00:18:58;21.80;83.10
4960;DHT22;2495;48.200;11.532;2022-08-19T00:23:59;21.90;82.30
4960;DHT22;2495;48.200;11.532;2022-08-19T00:29:01;21.80;81.70
4960;DHT22;2495;48.200;11.532;2022-08-19T00:34:02;21.70;82.00
4960;DHT22;2495;48.200;11.532;2022-08-19T00:39:03;21.60;82.00
4960;DHT22;2495;48.200;11.532;2022-08-19T00:44:06;21.60;82.30
4960;DHT22;2495;48.200;11.532;2022-08-19T00:49:16;21.50;83.50
4960;DHT22;2495;48.200;11.532;2022-08-19T00:54:31;21.50;83.00
4960;DHT22;2495;48.200;11.532;2022-08-19T00:59:33;21.50;82.60
4960;DHT22;2495;48.200;11.532;2022-08-19T01:04:33;21.50;83.00
4960;DHT22;2495;48.200;11.532;2022-08-19T01:09:34;21.40;82.90
4960;DHT22;2495;48.200;11.532;2022-08-19T01:14:41;21.50;82.80
4960;DHT22;2495;48.200;11.532;2022-08-19T01:19:46;21.40;83.00
4960;DHT22;2495;48.200;11.532;2022-08-19T01:24:54;21.40;82.90
4960;DHT22;2495;48.200;11.532;2022-08-19T01:30:20;21.40;83.30
4960;DHT22;2495;48.200;11.532;2022-08-19T01:35:18;21.40;82.80
4960;DHT22;2495;48.200;11.532;2022-08-19T01:40:23;21.30;82.90
4960;DHT22;2495;48.200;11.532;2022-08-19T01:45:27;21.30;83.00
4960;DHT22;2495;48.200;11.532;2022-08-19T01:50:28;21.50;84.50
4960;DHT22;2495;48.200;11.532;2022-08-19T01:55:29;21.60;83.50
4960;DHT22;2495;48.200;11.532;2022-08-19T02:00:31;21.60;84.40
4960;DHT22;2495;48.200;11.532;2022-08-19T02:05:31;21.70;83.50
4960;DHT22;2495;48.200;11.532;2022-08-19T02:10:33;21.60;83.20
4960;DHT22;2495;48.200;11.532;2022-08-19T02:15:34;21.60;83.30
4960;DHT22;2495;48.200;11.532;2022-08-19T02:20:36;21.50;83.30
4960;DHT22;2495;48.200;11.532;2022-08-19T02:25:40;21.50;83.40
4960;DHT22;2495;48.200;11.532;2022-08-19T02:30:45;21.40;83.80
4960;DHT22;2495;48.200;11.532;2022-08-19T02:35:46;21.40;83.60
4960;DHT22;2495;48.200;11.532;2022-08-19T02:40:51;21.40;83.70
4960;DHT22;2495;48.200;11.532;2022-08-19T02:45:51;21.30;83.60
4960;DHT22;2495;48.200;11.532;2022-08-19T02:50:55;21.30;83.70
4960;DHT22;2495;48.200;11.532;2022-08-19T02:55:58;21.30;83.70
4960;DHT22;2495;48.200;11.532;2022-08-19T03:00:59;21.30;83.70
4960;DHT22;2495;48.200;11.532;2022-08-19T03:06:11;21.40;83.70
4960;DHT22;2495;48.200;11.532;2022-08-19T03:11:18;21.40;83.90
4960;DHT22;2495;48.200;11.532;2022-08-19T03:16:25;21.40;83.80
4960;DHT22;2495;48.200;11.532;2022-08-19T03:21:26;21.40;83.70
4960;DHT22;2495;48.200;11.532;2022-08-19T03:26:27;21.30;83.60
4960;DHT22;2495;48.200;11.532;2022-08-19T03:31:29;21.50;84.80
4960;DHT22;2495;48.200;11.532;2022-08-19T03:36:30;21.70;84.00
4960;DHT22;2495;48.200;11.532;2022-08-19T03:41:40;21.70;83.50
4960;DHT22;2495;48.200;11.532;2022-08-19T03:46:41;21.60;83.70
4960;DHT22;2495;48.200;11.532;2022-08-19T03:51:46;21.60;83.40
4960;DHT22;2495;48.200;11.532;2022-08-19T03:56:48;21.50;83.70
4960;DHT22;2495;48.200;11.532;2022-08-19T04:01:49;21.50;83.70
4960;DHT22;2495;48.200;11.532;2022-08-19T04:06:50;21.50;83.50
4960;DHT22;2495;48.200;11.532;2022-08-19T04:11:57;21.50;83.50
4960;DHT22;2495;48.200;11.532;2022-08-19T04:17:01;21.70;84.80
4960;DHT22;2495;48.200;11.532;2022-08-19T04:22:05;21.80;83.70
4960;DHT22;2495;48.200;11.532;2022-08-19T04:27:06;21.80;83.30
4960;DHT22;2495;48.200;11.532;2022-08-19T04:32:10;21.80;83.30
4960;DHT22;2495;48.200;11.532;2022-08-19T04:37:14;21.90;84.30
4960;DHT22;2495;48.200;11.532;2022-08-19T04:42:19;22.00;83.40
4960;DHT22;2495;48.200;11.532;2022-08-19T04:47:54;22.00;83.10
4960;DHT22;2495;48.200;11.532;2022-08-19T04:52:57;21.90;83.20
4960;DHT22;2495;48.200;11.532;2022-08-19T04:58:03;21.80;83.40
4960;DHT22;2495;48.200;11.532;2022-08-19T05:03:08;21.70;83.60
4960;DHT22;2495;48.200;11.532;2022-08-19T05:08:12;21.70;82.90
4960;DHT22;2495;48.200;11.532;2022-08-19T05:13:17;21.60;82.60
4960;DHT22;2495;48.200;11.532;2022-08-19T05:18:22;21.60;82.50
4960;DHT22;2495;48.200;11.532;2022-08-19T05:23:49;21.60;83.00
4960;DHT22;2495;48.200;11.532;2022-08-19T05:29:10;21.70;82.50
4960;DHT22;2495;48.200;11.532;2022-08-19T05:35:28;21.70;82.70
4960;DHT22;2495;48.200;11.532;2022-08-19T05:39:54;21.70;83.50
4960;DHT22;2495;48.200;11.532;2022-08-19T05:44:59;21.70;82.50
4960;DHT22;2495;48.200;11.532;2022-08-19T05:50:07;21.70;83.40
4960;DHT22;2495;48.200;11.532;2022-08-19T05:55:09;21.80;83.20
4960;DHT22;2495;48.200;11.532;2022-08-19T06:16:10;21.80;82.90
4960;DHT22;2495;48.200;11.532;2022-08-19T06:21:16;22.00;84.30
4960;DHT22;2495;48.200;11.532;2022-08-19T06:42:12;22.00;82.80
4960;DHT22;2495;48.200;11.532;2022-08-19T06:47:15;22.10;83.40
4960;DHT22;2495;48.200;11.532;2022-08-19T06:52:19;22.20;82.50
4960;DHT22;2495;48.200;11.532;2022-08-19T06:57:30;22.20;82.60
4960;DHT22;2495;48.200;11.532;2022-08-19T07:02:37;22.10;82.10
4960;DHT22;2495;48.200;11.532;2022-08-19T07:07:41;22.10;81.90
4960;DHT22;2495;48.200;11.532;2022-08-19T07:18:26;22.00;82.30
4960;DHT22;2495;48.200;11.532;2022-08-19T07:23:31;22.30;81.60
4960;DHT22;2495;48.200;11.532;2022-08-19T07:28:32;22.20;82.00
4960;DHT22;2495;48.200;11.532;2022-08-19T07:33:34;22.30;81.70
4960;DHT22;2495;48.200;11.532;2022-08-19T07:38:35;22.40;81.70
4960;DHT22;2495;48.200;11.532;2022-08-19T07:43:37;22.60;80.40
4960;DHT22;2495;48.200;11.532;2022-08-19T07:48:40;22.80;80.50
4960;DHT22;2495;48.200;11.532;2022-08-19T07:53:40;22.90;81.00
4960;DHT22;2495;48.200;11.532;2022-08-19T07:58:42;22.80;80.80
4960;DHT22;2495;48.200;11.532;2022-08-19T08:03:43;22.80;81.10
4960;DHT22;2495;48.200;11.532;2022-08-19T08:09:03;22.70;81.40
4960;DHT22;2495;48.200;11.532;2022-08-19T08:14:13;22.60;81.70
4960;DHT22;2495;48.200;11.532;2022-08-19T08:19:14;22.50;81.60
4960;DHT22;2495;48.200;11.532;2022-08-19T08:24:16;22.50;81.40
4960;DHT22;2495;48.200;11.532;2022-08-19T08:29:17;22.40;81.90
4960;DHT22;2495;48.200;11.532;2022-08-19T08:34:18;22.30;82.10
4960;DHT22;2495;48.200;11.532;2022-08-19T08:39:20;22.40;83.30
4960;DHT22;2495;48.200;11.532;2022-08-19T08:44:27;22.60;82.40
4960;DHT22;2495;48.200;11.532;2022-08-19T08:49:40;22.60;82.30
4960;DHT22;2495;48.200;11.532;2022-08-19T08:54:42;22.50;82.40
4960;DHT22;2495;48.200;11.532;2022-08-19T08:59:43;22.60;82.50
4960;DHT22;2495;48.200;11.532;2022-08-19T09:04:43;22.70;81.40
4960;DHT22;2495;48.200;11.532;2022-08-19T09:09:46;22.70;81.00
4960;DHT22;2495;48.200;11.532;2022-08-19T09:15:00;22.60;81.20
4960;DHT22;2495;48.200;11.532;2022-08-19T09:20:02;22.50;82.20
4960;DHT22;2495;48.200;11.532;2022-08-19T09:25:05;22.40;82.20
4960;DHT22;2495;48.200;11.532;2022-08-19T09:30:06;22.40;82.50
4960;DHT22;2495;48.200;11.532;2022-08-19T09:35:08;22.60;83.90
4960;DHT22;2495;48.200;11.532;2022-08-19T09:40:09;22.70;82.90
4960;DHT22;2495;48.200;11.532;2022-08-19T09:45:11;22.70;82.60
4960;DHT22;2495;48.200;11.532;2022-08-19T09:50:13;22.70;82.30
4960;DHT22;2495;48.200;11.532;2022-08-19T09:55:14;22.50;82.10
4960;DHT22;2495;48.200;11.532;2022-08-19T10:00:16;22.50;82.30
4960;DHT22;2495;48.200;11.532;2022-08-19T10:05:17;22.60;82.60
4960;DHT22;2495;48.200;11.532;2022-08-19T10:16:46;22.80;82.50
4960;DHT22;2495;48.200;11.532;2022-08-19T10:21:47;22.90;82.30
4960;DHT22;2495;48.200;11.532;2022-08-19T10:26:49;22.90;81.50
4960;DHT22;2495;48.200;11.532;2022-08-19T10:31:50;23.10;81.70
4960;DHT22;2495;48.200;11.532;2022-08-19T10:36:52;23.40;81.30
4960;DHT22;2495;48.200;11.532;2022-08-19T10:41:53;24.60;79.80
4960;DHT22;2495;48.200;11.532;2022-08-19T10:46:54;26.20;76.00
4960;DHT22;2495;48.200;11.532;2022-08-19T10:51:56;26.50;74.90
4960;DHT22;2495;48.200;11.532;2022-08-19T10:57:18;26.10;76.10
4960;DHT22;2495;48.200;11.532;2022-08-19T11:02:20;25.50;76.60
4960;DHT22;2495;48.200;11.532;2022-08-19T11:07:21;25.90;76.10
4960;DHT22;2495;48.200;11.532;2022-08-19T11:12:22;25.90;75.20
4960;DHT22;2495;48.200;11.532;2022-08-19T11:17:24;25.50;75.00
4960;DHT22;2495;48.200;11.532;2022-08-19T11:22:25;25.30;75.30
4960;DHT22;2495;48.200;11.532;2022-08-19T11:27:27;25.40;75.50
4960;DHT22;2495;48.200;11.532;2022-08-19T11:32:29;25.70;73.70
4960;DHT22;2495;48.200;11.532;2022-08-19T11:37:30;25.50;73.70
4960;DHT22;2495;48.200;11.532;2022-08-19T11:42:31;25.10;74.40
4960;DHT22;2495;48.200;11.532;2022-08-19T11:47:51;24.90;75.10
4960;DHT22;2495;48.200;11.532;2022-08-19T11:52:53;24.70;75.20
4960;DHT22;2495;48.200;11.532;2022-08-19T11:57:54;24.70;75.30
4960;DHT22;2495;48.200;11.532;2022-08-19T12:02:55;24.70;75.50
4960;DHT22;2495;48.200;11.532;2022-08-19T12:07:57;24.90;76.10
4960;DHT22;2495;48.200;11.532;2022-08-19T12:13:01;25.10;75.30
4960;DHT22;2495;48.200;11.532;2022-08-19T12:18:17;25.20;74.60
4960;DHT22;2495;48.200;11.532;2022-08-19T12:23:13;25.20;75.10
4960;DHT22;2495;48.200;11.532;2022-08-19T12:28:24;25.50;73.30
4960;DHT22;2495;48.200;11.532;2022-08-19T12:33:29;25.70;72.30
4960;DHT22;2495;48.200;11.532;2022-08-19T12:38:51;25.80;72.30
4960;DHT22;2495;48.200;11.532;2022-08-19T12:43:55;25.60;72.30
4960;DHT22;2495;48.200;11.532;2022-08-19T12:49:08;25.60;71.20
4960;DHT22;2495;48.200;11.532;2022-08-19T12:54:10;25.70;71.30
4960;DHT22;2495;48.200;11.532;2022-08-19T13:45:15;26.30;69.80
4960;DHT22;2495;48.200;11.532;2022-08-19T13:57:50;25.50;70.60
4960;DHT22;2495;48.200;11.532;2022-08-19T14:03:42;25.10;71.90
4960;DHT22;2495;48.200;11.532;2022-08-19T14:08:46;25.40;72.30
4960;DHT22;2495;48.200;11.532;2022-08-19T14:13:48;25.70;71.70
4960;DHT22;2495;48.200;11.532;2022-08-19T14:18:50;25.60;72.00
4960;DHT22;2495;48.200;11.532;2022-08-19T14:23:58;25.40;72.30
4960;DHT22;2495;48.200;11.532;2022-08-19T14:29:00;25.10;72.90
4960;DHT22;2495;48.200;11.532;2022-08-19T14:34:01;25.00;73.00
4960;DHT22;2495;48.200;11.532;2022-08-19T14:39:03;25.00;72.80
4960;DHT22;2495;48.200;11.532;2022-08-19T14:44:07;25.00;72.80
4960;DHT22;2495;48.200;11.532;2022-08-19T14:49:10;25.00;72.80
4960;DHT22;2495;48.200;11.532;2022-08-19T14:54:17;24.90;72.20
4960;DHT22;2495;48.200;11.532;2022-08-19T14:59:19;25.10;72.60
4960;DHT22;2495;48.200;11.532;2022-08-19T15:04:20;25.20;72.30
4960;DHT22;2495;48.200;11.532;2022-08-19T15:09:22;25.40;72.00
4960;DHT22;2495;48.200;11.532;2022-08-19T15:14:23;25.30;71.50
4960;DHT22;2495;48.200;11.532;2022-08-19T15:19:24;25.20;71.80
4960;DHT22;2495;48.200;11.532;2022-08-19T15:24:26;24.90;71.80
4960;DHT22;2495;48.200;11.532;2022-08-19T15:29:27;24.70;72.10
4960;DHT22;2495;48.200;11.532;2022-08-19T15:34:29;24.50;72.90
4960;DHT22;2495;48.200;11.532;2022-08-19T15:39:31;24.30;73.20
4960;DHT22;2495;48.200;11.532;2022-08-19T15:44:32;24.30;73.70
4960;DHT22;2495;48.200;11.532;2022-08-19T15:49:34;24.30;73.50
4960;DHT22;2495;48.200;11.532;2022-08-19T15:54:35;24.30;73.30
4960;DHT22;2495;48.200;11.532;2022-08-19T15:59:40;24.30;73.00
4960;DHT22;2495;48.200;11.532;2022-08-19T16:04:59;24.30;73.00
4960;DHT22;2495;48.200;11.532;2022-08-19T16:10:19;24.20;73.50
4960;DHT22;2495;48.200;11.532;2022-08-19T16:15:20;24.20;73.60
4960;DHT22;2495;48.200;11.532;2022-08-19T16:20:22;24.20;74.40
4960;DHT22;2495;48.200;11.532;2022-08-19T16:25:23;24.30;73.80
4960;DHT22;2495;48.200;11.532;2022-08-19T16:30:24;24.30;73.60
4960;DHT22;2495;48.200;11.532;2022-08-19T16:35:26;24.20;73.50
4960;DHT22;2495;48.200;11.532;2022-08-19T16:40:27;24.10;73.60
4960;DHT22;2495;48.200;11.532;2022-08-19T16:45:28;24.00;73.80
4960;DHT22;2495;48.200;11.532;2022-08-19T16:50:30;24.00;74.00
4960;DHT22;2495;48.200;11.532;2022-08-19T16:55:31;23.90;73.90
4960;DHT22;2495;48.200;11.532;2022-08-19T17:00:33;24.00;73.80
4960;DHT22;2495;48.200;11.532;2022-08-19T17:05:34;24.00;73.70
4960;DHT22;2495;48.200;11.532;2022-08-19T17:10:35;24.10;73.60
4960;DHT22;2495;48.200;11.532;2022-08-19T17:15:36;24.10;73.90
4960;DHT22;2495;48.200;11.532;2022-08-19T17:20:38;23.90;74.00
4960;DHT22;2495;48.200;11.532;2022-08-19T17:25:39;23.80;74.40
4960;DHT22;2495;48.200;11.532;2022-08-19T17:30:40;23.70;74.60
4960;DHT22;2495;48.200;11.532;2022-08-19T17:35:41;23.60;74.70
4960;DHT22;2495;48.200;11.532;2022-08-19T17:40:43;23.50;74.90
4960;DHT22;2495;48.200;11.532;2022-08-19T17:45:44;23.50;75.00
4960;DHT22;2495;48.200;11.532;2022-08-19T17:50:45;23.40;75.00
4960;DHT22;2495;48.200;11.532;2022-08-19T17:55:46;23.40;75.40
4960;DHT22;2495;48.200;11.532;2022-08-19T18:00:48;23.20;75.40
4960;DHT22;2495;48.200;11.532;2022-08-19T18:05:49;23.20;75.50
4960;DHT22;2495;48.200;11.532;2022-08-19T18:10:51;23.10;76.10
4960;DHT22;2495;48.200;11.532;2022-08-19T18:15:55;23.10;75.20
4960;DHT22;2495;48.200;11.532;2022-08-19T18:20:56;23.00;74.90
4960;DHT22;2495;48.200;11.532;2022-08-19T18:25:57;22.90;75.20
4960;DHT22;2495;48.200;11.532;2022-08-19T18:30:59;22.90;75.40
4960;DHT22;2495;48.200;11.532;2022-08-19T18:36:00;22.80;75.40
4960;DHT22;2495;48.200;11.532;2022-08-19T18:41:02;22.70;75.30
4960;DHT22;2495;48.200;11.532;2022-08-19T18:46:21;22.70;75.50
4960;DHT22;2495;48.200;11.532;2022-08-19T18:51:28;22.70;75.40
4960;DHT22;2495;48.200;11.532;2022-08-19T18:56:29;22.50;75.60
4960;DHT22;2495;48.200;11.532;2022-08-19T19:01:41;22.50;75.60
4960;DHT22;2495;48.200;11.532;2022-08-19T19:06:41;22.50;76.30
4960;DHT22;2495;48.200;11.532;2022-08-19T19:11:43;22.40;75.50
4960;DHT22;2495;48.200;11.532;2022-08-19T19:16:44;22.40;75.70
4960;DHT22;2495;48.200;11.532;2022-08-19T19:21:47;22.30;75.70
4960;DHT22;2495;48.200;11.532;2022-08-19T19:26:47;22.30;75.90
4960;DHT22;2495;48.200;11.532;2022-08-19T19:31:48;22.30;76.00
4960;DHT22;2495;48.200;11.532;2022-08-19T19:36:50;22.20;76.10
4960;DHT22;2495;48.200;11.532;2022-08-19T19:41:50;22.20;76.20
4960;DHT22;2495;48.200;11.532;2022-08-19T19:46:52;22.10;75.90
4960;DHT22;2495;48.200;11.532;2022-08-19T19:51:53;22.00;76.20
4960;DHT22;2495;48.200;11.532;2022-08-19T19:56:54;22.00;76.40
4960;DHT22;2495;48.200;11.532;2022-08-19T20:01:56;22.00;76.50
4960;DHT22;2495;48.200;11.532;2022-08-19T20:06:57;21.90;76.20
4960;DHT22;2495;48.200;11.532;2022-08-19T20:11:59;21.90;76.10
4960;DHT22;2495;48.200;11.532;2022-08-19T20:17:00;21.90;76.40
4960;DHT22;2495;48.200;11.532;2022-08-19T20:22:03;21.90;77.70
4960;DHT22;2495;48.200;11.532;2022-08-19T20:27:03;22.10;76.80
4960;DHT22;2495;48.200;11.532;2022-08-19T20:32:05;22.00;76.80
4960;DHT22;2495;48.200;11.532;2022-08-19T20:37:06;21.90;76.10
4960;DHT22;2495;48.200;11.532;2022-08-19T20:42:08;21.80;76.40
4960;DHT22;2495;48.200;11.532;2022-08-19T20:47:09;21.80;76.40
4960;DHT22;2495;48.200;11.532;2022-08-19T20:52:10;21.70;76.50
4960;DHT22;2495;48.200;11.532;2022-08-19T20:57:12;21.70;77.10
4960;DHT22;2495;48.200;11.532;2022-08-19T21:02:13;21.70;77.00
4960;DHT22;2495;48.200;11.532;2022-08-19T21:07:15;21.60;77.70
4960;DHT22;2495;48.200;11.532;2022-08-19T21:12:16;21.60;77.20
4960;DHT22;2495;48.200;11.532;2022-08-19T21:17:17;21.60;77.30
4960;DHT22;2495;48.200;11.532;2022-08-19T21:22:19;21.60;77.20
4960;DHT22;2495;48.200;11.532;2022-08-19T21:27:20;21.60;77.40
4960;DHT22;2495;48.200;11.532;2022-08-19T21:32:22;21.60;77.50
4960;DHT22;2495;48.200;11.532;2022-08-19T21:37:23;21.50;77.90
4960;DHT22;2495;48.200;11.532;2022-08-19T21:42:43;21.70;79.40
4960;DHT22;2495;48.200;11.532;2022-08-19T21:47:44;21.80;79.00
4960;DHT22;2495;48.200;11.532;2022-08-19T21:52:46;21.70;78.40
4960;DHT22;2495;48.200;11.532;2022-08-19T21:57:48;21.70;78.50
4960;DHT22;2495;48.200;11.532;2022-08-19T22:02:49;21.60;78.40
4960;DHT22;2495;48.200;11.532;2022-08-19T22:07:51;21.60;78.50
4960;DHT22;2495;48.200;11.532;2022-08-19T22:12:52;21.50;78.60
4960;DHT22;2495;48.200;11.532;2022-08-19T22:17:53;21.50;78.50
4960;DHT22;2495;48.200;11.532;2022-08-19T22:22:56;21.60;79.90
4960;DHT22;2495;48.200;11.532;2022-08-19T22:27:56;21.80;79.10
4960;DHT22;2495;48.200;11.532;2022-08-19T22:32:58;21.70;78.80
4960;DHT22;2495;48.200;11.532;2022-08-19T22:38:19;21.60;78.80
4960;DHT22;2495;48.200;11.532;2022-08-19T22:43:24;21.50;78.90
4960;DHT22;2495;48.200;11.532;2022-08-19T22:48:30;21.60;79.40
4960;DHT22;2495;48.200;11.532;2022-08-19T22:53:32;21.50;79.00
4960;DHT22;2495;48.200;11.532;2022-08-19T22:58:33;21.50;79.30
4960;DHT22;2495;48.200;11.532;2022-08-19T23:03:34;21.40;79.20
4960;DHT22;2495;48.200;11.532;2022-08-19T23:08:35;21.40;79.20
4960;DHT22;2495;48.200;11.532;2022-08-19T23:13:37;21.40;79.20
4960;DHT22;2495;48.200;11.532;2022-08-19T23:18:38;21.30;79.50
4960;DHT22;2495;48.200;11.532;2022-08-19T23:23:39;21.30;79.50
4960;DHT22;2495;48.200;11.532;2022-08-19T23:28:43;21.20;79.70
4960;DHT22;2495;48.200;11.532;2022-08-19T23:34:03;21.20;80.00
4960;DHT22;2495;48.200;11.532;2022-08-19T23:39:05;21.20;79.70
4960;DHT22;2495;48.200;11.532;2022-08-19T23:44:06;21.10;80.00
4960;DHT22;2495;48.200;11.532;2022-08-19T23:49:08;21.20;81.40
4960;DHT22;2495;48.200;11.532;2022-08-19T23:54:11;21.40;80.70
4960;DHT22;2495;48.200;11.532;2022-08-19T23:59:13;21.30;80.50
